Time;durP1;ratioP1;P1;durP2;ratioP2;P2;SDS_P1;SDS_P2;PMS_P1;PMS_P2;Temp;Humidity;BMP_temperature;BMP_pressure;BME280_temperature;BME280_humidity;BME280_pressure;Samples;Min_cycle;Max_cycle;Signal;HPM_P1;HPM_P2
2023/06/30 00:01:26;;;;;;;1.20;1.10;;;29.20;99.90;;;;;;5035043;28;20232;-96
2023/06/30 00:03:58;;;;;;;2.38;1.23;;;29.30;99.90;;;;;;5041993;28;20209;-96
2023/06/30 00:06:31;;;;;;;2.70;1.30;;;29.10;99.90;;;;;;5033062;28;20193;-96
2023/06/30 00:09:06;;;;;;;1.95;1.27;;;29.00;99.90;;;;;;5040900;28;20201;-96
2023/06/30 00:11:48;;;;;;;3.30;1.40;;;28.70;99.90;;;;;;5037456;28;20209;-96
2023/06/30 00:14:20;;;;;;;2.15;1.08;;;28.60;99.90;;;;;;5036926;28;20209;-96
2023/06/30 00:16:56;;;;;;;1.90;1.10;;;28.80;99.90;;;;;;5056007;28;20189;-96
2023/06/30 00:19:28;;;;;;;3.63;1.30;;;28.50;99.90;;;;;;5052939;28;20341;-96
2023/06/30 00:22:03;;;;;;;2.42;1.10;;;28.60;99.90;;;;;;5037189;28;20197;-96
2023/06/30 00:24:37;;;;;;;3.78;1.17;;;28.70;99.90;;;;;;5047605;28;20195;-96
2023/06/30 00:27:10;;;;;;;1.83;1.20;;;28.80;99.90;;;;;;5053774;28;20218;-96
2023/06/30 00:29:42;;;;;;;6.00;1.33;;;28.80;99.90;;;;;;5052816;28;20192;-96
2023/06/30 00:32:15;;;;;;;2.28;1.20;;;29.00;99.90;;;;;;5026699;28;20198;-96
2023/06/30 00:34:54;;;;;;;1.95;1.20;;;29.00;99.90;;;;;;5030391;28;20267;-96
2023/06/30 00:37:27;;;;;;;1.17;1.07;;;28.90;99.90;;;;;;5043118;28;20208;-96
2023/06/30 00:40:09;;;;;;;1.77;1.20;;;28.50;99.90;;;;;;5039436;28;20236;-96
2023/06/30 00:42:47;;;;;;;1.20;1.10;;;28.40;99.90;;;;;;5036409;28;20213;-96
2023/06/30 00:48:05;;;;;;;1.30;1.00;;;28.40;99.90;;;;;;5030921;28;20196;-96
2023/06/30 00:50:54;;;;;;;1.55;1.13;;;28.70;99.90;;;;;;5058664;28;20189;-96
2023/06/30 00:53:32;;;;;;;2.10;1.00;;;29.10;99.90;;;;;;5223072;23;20255;-96
2023/06/30 00:58:54;;;;;;;2.10;1.42;;;29.60;99.90;;;;;;5067038;22;20245;-96
2023/06/30 01:01:33;;;;;;;2.88;1.00;;;30.10;99.90;;;;;;5000128;28;20238;-96
2023/06/30 01:04:14;;;;;;;2.38;1.05;;;30.30;99.90;;;;;;4998064;28;20265;-96
2023/06/30 01:09:44;;;;;;;1.80;1.10;;;30.60;99.90;;;;;;4979632;28;20315;-96
2023/06/30 01:12:20;;;;;;;1.48;1.10;;;30.70;99.90;;;;;;4962040;28;20238;-96
2023/06/30 01:14:57;;;;;;;1.70;1.10;;;30.90;99.90;;;;;;4976574;28;20211;-96
2023/06/30 01:17:35;;;;;;;4.80;1.27;;;31.30;99.90;;;;;;4981867;28;20209;-96
2023/06/30 01:20:11;;;;;;;2.25;1.65;;;31.70;99.90;;;;;;4981864;28;20266;-96
2023/06/30 01:22:48;;;;;;;1.25;1.00;;;32.00;99.90;;;;;;4985949;28;20217;-96
2023/06/30 01:25:25;;;;;;;1.10;1.00;;;32.20;99.90;;;;;;4985003;28;20269;-96
2023/06/30 01:28:00;;;;;;;1.50;1.08;;;32.00;99.90;;;;;;4976396;28;20183;-96
2023/06/30 01:30:33;;;;;;;4.32;1.10;;;31.60;99.90;;;;;;4965196;28;20211;-96
2023/06/30 01:33:06;;;;;;;1.48;1.20;;;31.60;99.90;;;;;;4990336;28;20199;-95
2023/06/30 01:35:40;;;;;;;2.08;1.25;;;32.00;99.90;;;;;;4986205;28;20422;-96
2023/06/30 01:38:13;;;;;;;2.60;1.40;;;32.10;99.90;;;;;;4975741;28;20218;-96
2023/06/30 01:40:49;;;;;;;2.35;1.05;;;32.30;99.90;;;;;;4975659;28;20199;-96
2023/06/30 01:43:23;;;;;;;1.48;1.25;;;32.00;99.90;;;;;;4982725;28;20286;-93
2023/06/30 01:45:57;;;;;;;1.73;1.10;;;32.10;99.90;;;;;;4981871;28;20242;-96
2023/06/30 01:48:30;;;;;;;2.25;1.20;;;32.00;99.90;;;;;;4960290;28;20215;-96
2023/06/30 01:51:02;;;;;;;2.15;1.00;;;31.80;99.90;;;;;;4964750;28;20211;-96
2023/06/30 01:53:36;;;;;;;2.10;1.02;;;32.00;99.90;;;;;;4969730;28;20675;-96
2023/06/30 01:56:09;;;;;;;3.25;0.93;;;32.00;99.90;;;;;;4979077;28;20618;-96
2023/06/30 01:58:44;;;;;;;3.78;1.10;;;31.40;99.90;;;;;;4978523;28;20679;-96
2023/06/30 02:01:21;;;;;;;1.90;0.90;;;31.00;99.90;;;;;;4980864;28;20202;-96
2023/06/30 02:03:54;;;;;;;1.92;1.15;;;30.90;99.90;;;;;;4984935;28;20215;-96
2023/06/30 02:06:25;;;;;;;1.52;0.98;;;30.50;99.90;;;;;;4981378;28;20709;-96
2023/06/30 02:12:23;;;;;;;2.72;1.10;;;29.20;99.90;;;;;;4985122;28;20218;-96
2023/06/30 02:15:23;;;;;;;1.65;0.98;;;28.30;99.90;;;;;;4985471;28;20199;-96
2023/06/30 02:20:46;;;;;;;1.08;0.90;;;27.50;99.90;;;;;;4978581;28;20326;-96
2023/06/30 02:23:18;;;;;;;1.63;0.95;;;27.20;99.90;;;;;;4999275;28;20213;-96
2023/06/30 02:26:02;;;;;;;2.65;0.90;;;27.20;99.90;;;;;;4981359;28;20559;-96
2023/06/30 02:28:35;;;;;;;1.63;0.80;;;26.90;99.90;;;;;;4965084;28;20216;-96
2023/06/30 02:33:52;;;;;;;0.70;0.70;;;26.40;99.90;;;;;;5211436;22;20312;-95
2023/06/30 02:36:37;;;;;;;1.20;0.70;;;26.20;99.90;;;;;;5043975;28;20205;-96
2023/06/30 02:39:12;;;;;;;2.40;0.80;;;25.90;99.90;;;;;;5041199;28;20224;-96
2023/06/30 02:41:45;;;;;;;0.93;0.60;;;25.60;99.90;;;;;;5056701;28;20189;-96
2023/06/30 02:44:21;;;;;;;1.70;0.83;;;25.30;99.90;;;;;;5058152;28;20204;-94
2023/06/30 02:46:56;;;;;;;0.70;0.60;;;25.10;99.90;;;;;;5050936;28;20200;-94
2023/06/30 02:52:30;;;;;;;0.83;0.60;;;24.70;99.90;;;;;;5022419;28;20276;-96
2023/06/30 02:55:01;;;;;;;1.57;0.70;;;24.40;99.90;;;;;;5021464;28;20287;-96
2023/06/30 02:57:33;;;;;;;1.00;0.60;;;24.20;99.90;;;;;;5026114;28;20256;-96
2023/06/30 03:00:05;;;;;;;1.43;0.60;;;24.00;99.90;;;;;;5034151;28;20278;-96
2023/06/30 03:02:39;;;;;;;1.10;0.50;;;23.70;99.90;;;;;;5042137;28;20223;-95
2023/06/30 03:05:24;;;;;;;1.97;0.63;;;23.60;99.90;;;;;;5043505;28;20216;-96
2023/06/30 03:08:15;;;;;;;1.93;0.60;;;23.40;99.90;;;;;;5038406;28;20208;-96
2023/06/30 03:10:50;;;;;;;1.63;0.80;;;23.20;99.90;;;;;;5040790;28;20413;-95
2023/06/30 03:13:25;;;;;;;1.63;0.70;;;23.10;99.90;;;;;;5022619;28;20237;-96
2023/06/30 03:15:58;;;;;;;2.40;0.77;;;22.90;99.90;;;;;;5027282;28;20258;-96
2023/06/30 03:18:30;;;;;;;3.10;0.90;;;22.80;99.90;;;;;;5034978;28;20632;-96
2023/06/30 03:21:08;;;;;;;2.80;1.07;;;22.60;99.90;;;;;;5035429;28;20237;-96
2023/06/30 03:23:40;;;;;;;1.40;0.70;;;22.40;99.90;;;;;;5036319;28;20280;-96
2023/06/30 03:26:13;;;;;;;0.80;0.57;;;22.30;99.90;;;;;;5035759;28;20271;-96
2023/06/30 03:28:46;;;;;;;1.53;0.80;;;22.20;99.90;;;;;;5027248;28;20221;-96
2023/06/30 03:31:27;;;;;;;0.60;0.60;;;22.20;99.90;;;;;;5042104;28;20212;-96
2023/06/30 03:34:00;;;;;;;1.50;0.80;;;22.10;99.90;;;;;;5032151;28;20216;-94
2023/06/30 03:36:36;;;;;;;3.87;0.77;;;22.10;99.90;;;;;;5037605;28;20344;-95
2023/06/30 03:39:08;;;;;;;2.07;0.70;;;22.00;99.90;;;;;;5034960;28;20204;-96
2023/06/30 03:41:41;;;;;;;1.67;0.73;;;21.90;99.90;;;;;;5036263;28;20209;-95
2023/06/30 03:44:13;;;;;;;0.70;0.57;;;21.70;99.90;;;;;;5017225;28;20658;-95
2023/06/30 03:46:45;;;;;;;2.40;0.80;;;21.50;99.90;;;;;;5035244;28;20232;-94
2023/06/30 03:49:17;;;;;;;1.27;0.63;;;21.40;99.90;;;;;;5029143;28;20201;-94
2023/06/30 03:51:52;;;;;;;1.50;0.60;;;21.30;99.90;;;;;;5026910;28;20217;-95
2023/06/30 03:54:26;;;;;;;1.10;0.70;;;21.10;99.90;;;;;;5039377;28;20688;-94
2023/06/30 03:56:59;;;;;;;1.40;0.37;;;21.10;99.90;;;;;;5039532;28;20209;-95
2023/06/30 03:59:30;;;;;;;1.63;0.60;;;21.00;99.90;;;;;;5037921;28;20205;-95
2023/06/30 04:02:03;;;;;;;0.70;0.50;;;20.90;99.90;;;;;;5033680;28;20201;-94
2023/06/30 04:04:35;;;;;;;0.80;0.40;;;20.70;99.90;;;;;;5037136;28;20216;-95
2023/06/30 04:07:09;;;;;;;1.20;0.77;;;20.60;99.90;;;;;;5034775;28;20264;-94
2023/06/30 04:09:41;;;;;;;1.27;0.50;;;20.50;99.90;;;;;;5030070;28;20288;-92
2023/06/30 04:12:13;;;;;;;0.50;0.40;;;20.40;99.90;;;;;;5030451;28;20252;-94
2023/06/30 04:14:46;;;;;;;0.87;0.33;;;20.30;99.90;;;;;;5036294;28;20308;-94
2023/06/30 04:17:20;;;;;;;2.43;0.63;;;20.30;99.90;;;;;;5041486;28;20217;-93
2023/06/30 04:19:51;;;;;;;0.67;0.50;;;20.20;99.90;;;;;;5041602;28;20300;-94
2023/06/30 04:22:24;;;;;;;0.63;0.40;;;20.10;99.90;;;;;;5048767;28;20201;-95
2023/06/30 04:24:56;;;;;;;2.07;0.50;;;20.00;99.90;;;;;;5039868;28;20212;-95
2023/06/30 04:27:29;;;;;;;1.30;0.40;;;19.90;99.90;;;;;;5034220;28;20707;-95
2023/06/30 04:30:00;;;;;;;1.17;0.60;;;19.80;99.90;;;;;;5038795;28;20617;-95
2023/06/30 04:32:32;;;;;;;1.97;0.50;;;19.80;99.90;;;;;;5027286;28;20312;-95
2023/06/30 04:35:04;;;;;;;1.80;0.70;;;19.70;99.90;;;;;;5016635;28;20656;-95
2023/06/30 04:37:40;;;;;;;4.47;0.90;;;19.60;99.90;;;;;;5024025;28;20213;-96
2023/06/30 04:40:14;;;;;;;2.23;1.00;;;19.50;99.90;;;;;;5019263;28;20296;-95
2023/06/30 04:42:46;;;;;;;3.57;0.80;;;19.40;99.90;;;;;;5035667;28;20204;-94
2023/06/30 04:45:18;;;;;;;2.43;0.90;;;19.40;99.90;;;;;;5036042;28;20204;-93
2023/06/30 04:47:50;;;;;;;2.10;0.80;;;19.30;99.90;;;;;;5023523;28;20209;-95
2023/06/30 04:50:25;;;;;;;4.47;1.07;;;19.20;99.90;;;;;;5026618;28;20205;-94
2023/06/30 04:52:59;;;;;;;4.87;0.93;;;19.20;99.90;;;;;;5027361;28;20208;-94
2023/06/30 04:55:31;;;;;;;2.43;0.70;;;19.10;99.90;;;;;;5039237;28;20235;-96
2023/06/30 04:58:03;;;;;;;1.40;0.60;;;19.00;99.90;;;;;;5047573;28;20212;-94
2023/06/30 05:00:35;;;;;;;1.63;0.63;;;18.90;99.90;;;;;;5051274;28;20260;-96
2023/06/30 05:03:07;;;;;;;1.07;0.50;;;18.90;99.90;;;;;;5027070;28;20206;-95
2023/06/30 05:05:39;;;;;;;1.40;0.70;;;18.80;99.90;;;;;;5028937;28;20217;-96
2023/06/30 05:08:19;;;;;;;2.07;0.83;;;18.70;99.90;;;;;;5021974;28;20202;-94
2023/06/30 05:10:52;;;;;;;1.70;0.60;;;18.70;99.90;;;;;;5032218;28;20208;-95
2023/06/30 05:13:24;;;;;;;1.53;0.70;;;18.70;99.90;;;;;;5031505;28;20699;-94
2023/06/30 05:15:58;;;;;;;1.17;0.60;;;18.60;99.90;;;;;;5033296;28;20578;-95
2023/06/30 05:18:29;;;;;;;0.70;0.40;;;18.60;99.90;;;;;;5032960;28;20209;-95
2023/06/30 05:21:01;;;;;;;1.37;0.60;;;18.60;99.90;;;;;;5029502;28;20261;-95
2023/06/30 05:23:38;;;;;;;1.53;0.77;;;18.50;99.90;;;;;;5021809;28;20628;-95
2023/06/30 05:26:16;;;;;;;1.60;0.87;;;18.50;99.90;;;;;;5034659;28;20219;-94
2023/06/30 05:28:50;;;;;;;2.33;0.53;;;18.50;99.90;;;;;;5033438;28;20205;-95
2023/06/30 05:31:34;;;;;;;5.00;0.93;;;18.40;99.90;;;;;;5024386;28;20287;-95
2023/06/30 05:34:05;;;;;;;1.23;0.50;;;18.40;99.90;;;;;;5030927;28;20673;-95
2023/06/30 05:36:37;;;;;;;1.93;0.67;;;18.40;99.90;;;;;;5037688;28;20623;-94
2023/06/30 05:39:14;;;;;;;2.43;0.60;;;18.40;99.90;;;;;;5037975;28;20205;-95
2023/06/30 05:41:45;;;;;;;1.37;0.50;;;18.30;99.90;;;;;;5030626;28;20233;-95
2023/06/30 05:44:18;;;;;;;2.37;0.60;;;18.30;99.90;;;;;;5012840;28;20205;-95
2023/06/30 05:46:49;;;;;;;2.40;0.60;;;18.30;99.90;;;;;;5029667;28;20255;-96
2023/06/30 05:49:21;;;;;;;0.93;0.50;;;18.30;99.90;;;;;;5033176;28;20284;-94
2023/06/30 05:51:53;;;;;;;1.40;0.50;;;18.30;99.90;;;;;;5031888;28;20209;-95
2023/06/30 05:54:27;;;;;;;1.47;0.60;;;18.30;99.90;;;;;;5034287;28;20205;-94
2023/06/30 05:56:59;;;;;;;1.33;0.50;;;18.20;99.90;;;;;;5035437;28;20280;-93
2023/06/30 05:59:31;;;;;;;0.53;0.40;;;18.20;99.90;;;;;;5025307;28;20201;-95
2023/06/30 06:02:04;;;;;;;0.97;0.40;;;18.20;99.90;;;;;;5030905;28;20239;-95
2023/06/30 06:04:36;;;;;;;0.60;0.57;;;18.10;99.90;;;;;;5036542;28;20669;-95
2023/06/30 06:07:08;;;;;;;4.33;0.40;;;18.10;99.90;;;;;;5036151;28;20206;-95
2023/06/30 06:09:43;;;;;;;1.40;0.50;;;18.10;99.90;;;;;;5029931;28;20560;-95
2023/06/30 06:12:15;;;;;;;2.10;0.40;;;18.10;99.90;;;;;;5036409;28;20208;-95
2023/06/30 06:14:47;;;;;;;1.83;0.50;;;18.10;99.90;;;;;;5034701;28;20289;-95
2023/06/30 06:17:19;;;;;;;2.10;0.50;;;18.00;99.90;;;;;;5033382;28;20253;-94
2023/06/30 06:19:51;;;;;;;1.00;0.43;;;18.00;99.90;;;;;;5020571;28;20216;-95
2023/06/30 06:22:22;;;;;;;0.40;0.37;;;18.00;99.90;;;;;;5016027;28;20301;-95
2023/06/30 06:24:56;;;;;;;1.50;0.40;;;18.00;99.90;;;;;;5028845;28;20267;-95
2023/06/30 06:27:28;;;;;;;0.63;0.30;;;17.90;99.90;;;;;;5031259;28;20209;-94
2023/06/30 06:30:00;;;;;;;1.23;0.63;;;17.90;99.90;;;;;;5035236;28;20267;-95
2023/06/30 06:32:32;;;;;;;1.67;0.30;;;17.90;99.90;;;;;;5036239;28;20228;-96
2023/06/30 06:35:04;;;;;;;1.60;0.60;;;17.80;99.90;;;;;;5017051;28;20230;-94
2023/06/30 06:37:38;;;;;;;1.67;0.50;;;17.80;99.90;;;;;;5028141;28;20594;-95
2023/06/30 06:40:12;;;;;;;1.63;0.37;;;17.70;99.90;;;;;;5038133;28;20224;-95
2023/06/30 06:42:44;;;;;;;0.87;0.37;;;17.70;99.90;;;;;;5028448;28;20234;-95
2023/06/30 06:45:15;;;;;;;3.30;0.63;;;17.70;99.90;;;;;;5035788;28;20208;-96
2023/06/30 06:48:22;;;;;;;0.83;0.40;;;17.70;99.90;;;;;;5035797;28;20201;-94
2023/06/30 06:50:55;;;;;;;0.47;0.33;;;17.60;99.90;;;;;;5036699;28;20286;-95
2023/06/30 06:53:29;;;;;;;1.37;0.50;;;17.60;99.90;;;;;;5021397;28;20209;-95
2023/06/30 06:56:03;;;;;;;0.70;0.63;;;17.50;99.90;;;;;;5036119;28;20200;-96
2023/06/30 06:58:36;;;;;;;1.50;0.60;;;17.50;99.90;;;;;;5025379;28;20209;-95
2023/06/30 07:01:08;;;;;;;1.80;0.70;;;17.50;99.90;;;;;;5036100;28;20225;-94
2023/06/30 07:03:43;;;;;;;5.17;0.50;;;17.50;99.90;;;;;;5035804;28;20208;-95
2023/06/30 07:06:16;;;;;;;0.80;0.50;;;17.50;99.90;;;;;;5031476;28;20204;-94
2023/06/30 07:08:48;;;;;;;0.80;0.70;;;17.40;99.90;;;;;;5019147;28;20194;-95
2023/06/30 07:11:23;;;;;;;3.20;0.60;;;17.40;99.90;;;;;;5041582;28;20216;-95
2023/06/30 07:13:54;;;;;;;1.10;0.60;;;17.40;99.90;;;;;;5050672;28;20221;-96
2023/06/30 07:16:25;;;;;;;2.23;0.53;;;17.40;99.90;;;;;;5045623;28;20205;-95
2023/06/30 07:18:58;;;;;;;1.17;0.70;;;17.40;99.90;;;;;;5035310;28;20205;-95
2023/06/30 07:21:31;;;;;;;4.20;0.90;;;17.30;99.90;;;;;;5030555;28;20294;-96
2023/06/30 07:24:03;;;;;;;5.07;1.10;;;17.30;99.90;;;;;;5032907;28;20209;-95
2023/06/30 07:26:36;;;;;;;2.87;0.77;;;17.20;99.90;;;;;;5026164;28;20274;-95
2023/06/30 07:29:08;;;;;;;1.33;0.50;;;17.20;99.90;;;;;;5019818;28;20553;-94
2023/06/30 07:31:40;;;;;;;2.40;0.70;;;17.20;99.90;;;;;;5025331;28;20210;-95
2023/06/30 07:34:12;;;;;;;1.43;0.70;;;17.20;99.90;;;;;;5035482;28;20220;-95
2023/06/30 07:36:43;;;;;;;1.63;0.53;;;17.10;99.90;;;;;;5034848;28;20216;-94
2023/06/30 07:39:15;;;;;;;3.83;0.80;;;17.10;99.90;;;;;;5035148;28;20209;-95
2023/06/30 07:41:51;;;;;;;1.93;0.60;;;17.10;99.90;;;;;;5019462;28;20237;-95
2023/06/30 07:44:23;;;;;;;3.23;0.80;;;17.10;99.90;;;;;;5023544;28;20668;-94
2023/06/30 07:46:54;;;;;;;1.93;0.80;;;17.00;99.90;;;;;;5035078;28;20225;-95
2023/06/30 07:49:27;;;;;;;0.93;0.50;;;17.00;99.90;;;;;;5034538;28;20235;-95
2023/06/30 07:51:59;;;;;;;0.77;0.50;;;16.90;99.90;;;;;;5035032;28;20205;-94
2023/06/30 07:54:30;;;;;;;2.90;0.80;;;16.90;99.90;;;;;;5035721;28;20275;-94
2023/06/30 07:57:06;;;;;;;1.37;0.67;;;16.90;99.90;;;;;;5017697;28;20288;-94
2023/06/30 07:59:38;;;;;;;1.93;0.70;;;16.90;99.90;;;;;;5020287;28;20603;-94
2023/06/30 08:02:10;;;;;;;2.60;0.70;;;16.80;99.90;;;;;;5016940;28;20347;-95
2023/06/30 08:04:42;;;;;;;2.00;0.60;;;16.70;99.90;;;;;;5034224;28;20240;-95
2023/06/30 08:07:13;;;;;;;1.83;0.67;;;16.70;99.90;;;;;;5024794;28;20734;-94
2023/06/30 08:09:46;;;;;;;2.80;0.73;;;16.60;99.90;;;;;;5029152;28;20661;-95
2023/06/30 08:12:20;;;;;;;2.63;0.80;;;16.60;99.90;;;;;;5034175;28;20209;-95
2023/06/30 08:14:52;;;;;;;0.90;0.53;;;16.60;99.90;;;;;;5034798;28;20227;-95
2023/06/30 08:17:23;;;;;;;2.20;0.70;;;16.60;99.90;;;;;;5033376;28;20292;-94
2023/06/30 08:20:15;;;;;;;3.87;0.80;;;16.60;99.90;;;;;;5027073;28;20197;-94
2023/06/30 08:22:47;;;;;;;1.83;0.80;;;16.60;99.90;;;;;;5034689;28;20601;-94
2023/06/30 08:25:19;;;;;;;4.50;0.90;;;16.60;99.90;;;;;;5035156;28;20263;-94
2023/06/30 08:27:53;;;;;;;2.07;0.57;;;16.60;99.90;;;;;;5032011;28;20213;-94
2023/06/30 08:30:25;;;;;;;4.37;0.60;;;16.60;99.90;;;;;;5035058;28;20213;-95
2023/06/30 08:32:57;;;;;;;3.20;0.90;;;16.60;99.90;;;;;;5035795;28;20213;-94
2023/06/30 08:35:29;;;;;;;4.30;0.73;;;16.60;99.90;;;;;;5038286;28;20236;-94
2023/06/30 08:38:01;;;;;;;3.17;0.70;;;16.60;99.90;;;;;;5036871;28;20209;-94
2023/06/30 08:40:32;;;;;;;4.17;0.90;;;16.60;99.90;;;;;;5029513;28;20244;-94
2023/06/30 08:43:12;;;;;;;1.27;0.50;;;16.50;99.90;;;;;;5034975;28;20294;-94
2023/06/30 08:45:52;;;;;;;3.17;0.80;;;16.50;99.90;;;;;;5035652;28;20917;-94
2023/06/30 08:48:29;;;;;;;1.93;0.70;;;16.50;99.90;;;;;;5031673;28;20212;-93
2023/06/30 08:51:01;;;;;;;2.70;0.70;;;16.50;99.90;;;;;;5020757;28;20234;-94
2023/06/30 08:53:34;;;;;;;2.87;0.80;;;16.40;99.90;;;;;;5048092;28;20204;-94
2023/06/30 08:56:07;;;;;;;2.40;0.90;;;16.40;99.90;;;;;;5033795;28;20205;-94
2023/06/30 08:58:41;;;;;;;2.13;0.73;;;16.40;99.90;;;;;;5034245;28;20574;-94
2023/06/30 09:01:15;;;;;;;1.90;0.60;;;16.30;99.90;;;;;;5034309;28;20205;-95
2023/06/30 09:03:47;;;;;;;2.20;0.70;;;16.30;99.90;;;;;;5036564;28;20752;-95
2023/06/30 09:06:20;;;;;;;2.30;0.70;;;16.30;99.90;;;;;;5048986;28;20198;-94
2023/06/30 09:09:01;;;;;;;3.63;0.73;;;16.30;99.90;;;;;;5044000;28;20205;-94
2023/06/30 09:11:34;;;;;;;0.90;0.60;;;16.30;99.90;;;;;;5039823;28;20209;-96
2023/06/30 09:14:11;;;;;;;2.17;0.53;;;16.20;99.90;;;;;;5036132;28;20331;-94
2023/06/30 09:16:43;;;;;;;3.97;0.70;;;16.20;99.90;;;;;;5036236;28;20267;-95
2023/06/30 09:19:17;;;;;;;1.97;0.70;;;16.20;99.90;;;;;;5032846;28;20224;-95
2023/06/30 09:21:48;;;;;;;2.57;0.80;;;16.10;99.90;;;;;;5037575;28;20688;-95
2023/06/30 09:24:21;;;;;;;0.80;0.60;;;16.00;99.90;;;;;;5028296;28;20237;-94
2023/06/30 09:26:54;;;;;;;2.17;0.67;;;15.90;99.90;;;;;;5048078;28;20231;-94
2023/06/30 09:29:32;;;;;;;3.10;0.73;;;15.90;99.90;;;;;;5054986;28;20253;-94
2023/06/30 09:32:05;;;;;;;1.80;0.60;;;15.90;99.90;;;;;;5053884;28;20189;-95
2023/06/30 09:34:38;;;;;;;3.83;0.73;;;15.90;99.90;;;;;;5037590;28;20217;-95
2023/06/30 09:37:13;;;;;;;3.83;0.70;;;15.90;99.90;;;;;;5030912;28;20320;-94
2023/06/30 09:39:53;;;;;;;1.70;0.50;;;15.90;99.90;;;;;;5047483;28;20209;-94
2023/06/30 09:42:26;;;;;;;1.10;0.50;;;15.90;99.90;;;;;;5044589;28;20208;-95
2023/06/30 09:44:59;;;;;;;2.10;0.70;;;15.90;99.90;;;;;;5046902;28;20209;-95
2023/06/30 09:47:31;;;;;;;2.33;0.77;;;15.90;99.90;;;;;;5048330;28;20205;-95
2023/06/30 09:50:02;;;;;;;1.03;0.60;;;15.90;99.90;;;;;;5057360;28;20193;-96
2023/06/30 09:52:34;;;;;;;1.60;0.50;;;15.90;99.90;;;;;;5058488;28;20232;-93
2023/06/30 09:55:12;;;;;;;2.07;0.60;;;15.80;99.90;;;;;;5042770;28;20213;-96
2023/06/30 09:57:45;;;;;;;1.53;0.80;;;15.80;99.90;;;;;;5041784;28;20227;-95
2023/06/30 10:00:20;;;;;;;1.97;0.50;;;15.80;99.90;;;;;;5031732;28;20212;-95
2023/06/30 10:03:06;;;;;;;1.90;0.60;;;15.80;99.90;;;;;;5044369;28;20249;-94
2023/06/30 10:05:39;;;;;;;1.10;0.50;;;15.80;99.90;;;;;;5055179;28;20220;-95
2023/06/30 10:08:13;;;;;;;0.97;0.50;;;15.80;99.90;;;;;;5048557;28;20223;-94
2023/06/30 10:10:45;;;;;;;0.97;0.43;;;15.70;99.90;;;;;;5044781;28;20204;-94
2023/06/30 10:13:20;;;;;;;1.30;0.60;;;15.80;99.90;;;;;;5027960;28;20208;-94
2023/06/30 10:15:54;;;;;;;1.53;0.73;;;15.70;99.90;;;;;;5017789;28;20210;-96
2023/06/30 10:18:27;;;;;;;1.77;0.90;;;15.70;99.90;;;;;;5016818;28;20243;-95
2023/06/30 10:20:59;;;;;;;1.33;0.53;;;15.70;99.90;;;;;;5027742;28;20205;-94
2023/06/30 10:23:35;;;;;;;1.63;0.50;;;15.70;99.90;;;;;;5035696;28;20275;-94
2023/06/30 10:26:09;;;;;;;1.77;0.60;;;15.70;99.90;;;;;;5036074;28;20262;-94
2023/06/30 10:28:41;;;;;;;3.77;0.87;;;15.70;99.90;;;;;;5034832;28;20212;-94
2023/06/30 10:31:15;;;;;;;1.93;0.40;;;15.70;99.90;;;;;;5036493;28;20287;-94
2023/06/30 10:33:47;;;;;;;1.33;0.43;;;15.70;99.90;;;;;;5036030;28;20287;-93
2023/06/30 10:36:21;;;;;;;2.43;0.60;;;15.60;99.90;;;;;;5027961;28;20228;-94
2023/06/30 10:38:54;;;;;;;0.53;0.40;;;15.60;99.90;;;;;;5030079;28;20688;-93
2023/06/30 10:41:25;;;;;;;1.10;0.53;;;15.60;99.90;;;;;;5037565;28;20240;-95
2023/06/30 10:44:10;;;;;;;0.57;0.40;;;15.60;99.90;;;;;;5034942;28;20229;-96
2023/06/30 10:46:47;;;;;;;2.70;0.60;;;15.50;99.90;;;;;;5019600;28;20205;-95
2023/06/30 10:49:25;;;;;;;1.87;0.50;;;15.50;99.90;;;;;;5032663;28;20208;-93
2023/06/30 10:51:59;;;;;;;1.00;0.53;;;15.50;99.90;;;;;;5036099;28;20291;-96
2023/06/30 10:54:39;;;;;;;1.30;0.50;;;15.50;99.90;;;;;;5033706;28;20197;-95
2023/06/30 10:57:14;;;;;;;1.17;0.63;;;15.50;99.90;;;;;;5025283;28;20213;-95
2023/06/30 10:59:47;;;;;;;0.57;0.50;;;15.50;99.90;;;;;;5036655;28;20238;-94
2023/06/30 11:02:31;;;;;;;4.07;0.40;;;15.50;99.90;;;;;;5035927;28;20209;-95
2023/06/30 11:05:22;;;;;;;1.43;0.53;;;15.50;99.90;;;;;;5035738;28;20232;-93
2023/06/30 11:07:56;;;;;;;1.67;0.53;;;15.50;99.90;;;;;;5038486;28;20205;-94
2023/06/30 11:10:38;;;;;;;1.57;0.60;;;15.40;99.90;;;;;;5050173;28;20209;-95
2023/06/30 11:13:11;;;;;;;1.13;0.43;;;15.40;99.90;;;;;;5045133;28;20627;-94
2023/06/30 11:15:46;;;;;;;1.10;0.50;;;15.40;99.90;;;;;;5036207;28;20669;-95
2023/06/30 11:18:26;;;;;;;1.07;0.40;;;15.40;99.90;;;;;;5028665;28;20213;-94
2023/06/30 11:21:02;;;;;;;1.10;0.50;;;15.40;99.90;;;;;;5035485;28;20212;-95
2023/06/30 11:23:37;;;;;;;1.33;0.50;;;15.40;99.90;;;;;;5035158;28;20240;-95
2023/06/30 11:26:19;;;;;;;1.40;0.60;;;15.40;99.90;;;;;;5032010;28;20236;-94
2023/06/30 11:28:51;;;;;;;1.97;0.60;;;15.30;99.90;;;;;;5016081;28;20214;-95
2023/06/30 11:31:23;;;;;;;1.53;0.50;;;15.20;99.90;;;;;;5031048;28;20212;-94
2023/06/30 11:33:59;;;;;;;0.97;0.50;;;15.20;99.90;;;;;;5036507;28;20815;-94
2023/06/30 11:36:34;;;;;;;1.03;0.50;;;15.10;99.90;;;;;;5035587;28;20303;-94
2023/06/30 11:39:06;;;;;;;0.60;0.50;;;15.10;99.90;;;;;;5030133;28;20740;-95
2023/06/30 11:41:38;;;;;;;4.97;0.77;;;15.10;99.90;;;;;;5014319;28;20232;-95
2023/06/30 11:44:10;;;;;;;1.13;0.57;;;15.00;99.90;;;;;;5045937;28;20229;-94
2023/06/30 11:46:42;;;;;;;1.50;0.60;;;15.10;99.90;;;;;;5050659;28;20316;-94
2023/06/30 11:49:16;;;;;;;1.63;0.50;;;15.10;99.90;;;;;;5040298;28;20596;-94
2023/06/30 11:51:49;;;;;;;1.50;0.50;;;15.10;99.90;;;;;;5047738;28;20216;-94
2023/06/30 11:54:30;;;;;;;1.53;0.60;;;15.00;99.90;;;;;;5032461;28;20268;-95
2023/06/30 11:57:03;;;;;;;0.50;0.50;;;15.00;99.90;;;;;;5015348;28;20209;-95
2023/06/30 11:59:35;;;;;;;1.67;0.40;;;15.00;99.90;;;;;;5029466;28;20251;-94
2023/06/30 12:02:08;;;;;;;0.77;0.50;;;14.90;99.90;;;;;;5017268;28;20233;-94
2023/06/30 12:04:49;;;;;;;0.53;0.40;;;14.90;99.90;;;;;;5026701;28;20239;-94
2023/06/30 12:07:23;;;;;;;1.47;0.60;;;14.90;99.90;;;;;;5034642;28;20681;-94
2023/06/30 12:10:02;;;;;;;0.83;0.50;;;14.90;99.90;;;;;;5034410;28;20204;-94
2023/06/30 12:12:35;;;;;;;1.27;0.57;;;14.90;99.90;;;;;;5034712;28;20216;-96
2023/06/30 12:15:08;;;;;;;0.90;0.47;;;14.80;99.90;;;;;;5032282;28;20220;-94
2023/06/30 12:17:44;;;;;;;1.47;0.50;;;14.80;99.90;;;;;;5033533;28;20555;-94
2023/06/30 12:20:31;;;;;;;1.50;0.60;;;14.80;99.90;;;;;;5035001;28;20211;-95
2023/06/30 12:23:03;;;;;;;0.50;0.37;;;14.70;99.90;;;;;;5020933;28;20227;-95
2023/06/30 12:25:36;;;;;;;2.10;0.53;;;14.60;99.90;;;;;;5034156;28;20239;-95
2023/06/30 12:28:09;;;;;;;2.10;0.57;;;14.70;99.90;;;;;;5044318;28;20206;-93
2023/06/30 12:30:45;;;;;;;1.27;0.60;;;14.70;99.90;;;;;;5025212;28;20720;-94
2023/06/30 12:33:22;;;;;;;1.30;0.70;;;14.60;99.90;;;;;;5023502;28;20217;-94
2023/06/30 12:35:56;;;;;;;1.17;0.60;;;14.60;99.90;;;;;;5020183;28;20212;-95
2023/06/30 12:38:28;;;;;;;2.43;0.60;;;14.70;99.90;;;;;;5035110;28;20231;-94
2023/06/30 12:41:00;;;;;;;0.73;0.50;;;14.70;99.90;;;;;;5034228;28;20207;-95
2023/06/30 12:43:32;;;;;;;1.20;0.50;;;14.70;99.90;;;;;;5036557;28;20275;-95
2023/06/30 12:46:04;;;;;;;0.70;0.60;;;14.80;99.90;;;;;;5038544;28;20237;-94
2023/06/30 12:48:36;;;;;;;3.87;0.70;;;14.80;99.90;;;;;;5032661;28;20235;-94
2023/06/30 12:51:12;;;;;;;0.60;0.50;;;14.80;99.90;;;;;;5039481;28;20272;-95
2023/06/30 12:53:43;;;;;;;0.60;0.60;;;14.90;99.90;;;;;;5031889;28;20209;-96
2023/06/30 12:56:15;;;;;;;1.00;0.60;;;15.00;99.90;;;;;;5039008;28;20208;-94
2023/06/30 12:58:47;;;;;;;1.20;0.50;;;15.00;99.90;;;;;;5036971;28;20235;-94
2023/06/30 13:01:19;;;;;;;0.80;0.50;;;15.10;99.90;;;;;;5018225;28;20227;-95
2023/06/30 13:03:50;;;;;;;0.70;0.40;;;15.20;99.90;;;;;;5020153;28;20209;-95
2023/06/30 13:06:25;;;;;;;0.40;0.40;;;15.20;99.90;;;;;;5034635;28;20314;-95
2023/06/30 13:08:56;;;;;;;0.50;0.40;;;15.20;99.90;;;;;;5021327;28;20640;-94
2023/06/30 13:11:28;;;;;;;1.60;0.60;;;15.20;99.90;;;;;;5032337;28;20209;-94
2023/06/30 13:14:02;;;;;;;1.07;0.90;;;15.20;99.90;;;;;;5033152;28;20208;-95
2023/06/30 13:16:35;;;;;;;0.60;0.50;;;15.20;99.90;;;;;;5036185;28;20272;-95
2023/06/30 13:19:07;;;;;;;1.23;0.47;;;15.20;99.90;;;;;;5038738;28;20215;-95
2023/06/30 13:21:41;;;;;;;0.73;0.57;;;15.20;99.90;;;;;;5034558;28;20292;-95
2023/06/30 13:24:14;;;;;;;1.20;0.47;;;15.20;99.90;;;;;;5023252;28;20299;-95
2023/06/30 13:26:47;;;;;;;0.57;0.50;;;15.20;99.90;;;;;;5024225;28;20213;-95
2023/06/30 13:29:19;;;;;;;1.93;0.70;;;15.10;99.90;;;;;;5023920;28;20662;-95
2023/06/30 13:31:50;;;;;;;3.70;0.50;;;15.10;99.90;;;;;;5017821;28;20732;-95
2023/06/30 13:34:22;;;;;;;1.10;0.57;;;15.20;99.90;;;;;;5021258;28;20228;-95
2023/06/30 13:36:57;;;;;;;0.60;0.50;;;15.10;99.90;;;;;;5037562;28;20193;-95
2023/06/30 13:39:28;;;;;;;1.23;0.60;;;15.20;99.90;;;;;;5036344;28;20578;-94
2023/06/30 13:42:01;;;;;;;2.27;0.50;;;15.10;99.90;;;;;;5037327;28;20205;-94
2023/06/30 13:44:34;;;;;;;1.57;0.53;;;15.20;99.90;;;;;;5037654;28;20263;-95